Terminal Aerodrome Forecast
Issued by NWS Springfield, MO

Home | Current Version | Previous Version | Text Only | Print | Product List | Glossary On
Versions: 1 2 3 4 5 6 7 8 9 10 11 12 13 14 15 16 17 18 19 20 21 22 23 24 25 26 27 28 29 30 31 32 33 34 35 36
086
FTUS43 KSGF 191724 AAD
TAFSGF
TAF AMD
KSGF 191724Z 1917/2018 15007KT P6SM OVC004
     FM192000 17005KT P6SM OVC008
     FM200200 15005KT 1 1/2SM BR BKN003
     FM200800 15006KT 1/2SM FG OVC003
     FM201300 15006KT 1SM BR BKN003
     FM201600 15006KT 5SM BR OVC005=

USA.gov is the U.S. government's official web portal to all federal, state and local government web resources and services.